sensor_id;sensor_type;location;lat;lon;timestamp;pressure;altitude;pressure_sealevel;temperature;humidity
41218;BME280;26950;50.960;7.138;2023-04-25T00:00:47;100026.75;;;11.74;55.23
41218;BME280;26950;50.960;7.138;2023-04-25T00:03:13;100023.31;;;11.78;54.74
41218;BME280;26950;50.960;7.138;2023-04-25T00:05:41;100025.94;;;11.78;55.03
41218;BME280;26950;50.960;7.138;2023-04-25T00:08:09;100032.94;;;11.78;55.22
41218;BME280;26950;50.960;7.138;2023-04-25T00:10:36;100029.28;;;11.67;55.30
41218;BME280;26950;50.960;7.138;2023-04-25T00:13:02;100031.88;;;11.64;55.47
41218;BME280;26950;50.960;7.138;2023-04-25T00:15:29;100028.22;;;11.55;55.45
41218;BME280;26950;50.960;7.138;2023-04-25T00:17:56;100023.03;;;11.57;55.62
41218;BME280;26950;50.960;7.138;2023-04-25T00:20:22;100021.16;;;11.50;55.93
41218;BME280;26950;50.960;7.138;2023-04-25T00:22:50;100018.69;;;11.60;55.29
41218;BME280;26950;50.960;7.138;2023-04-25T00:25:19;100027.50;;;11.66;55.14
41218;BME280;26950;50.960;7.138;2023-04-25T00:27:45;100026.56;;;11.60;55.11
41218;BME280;26950;50.960;7.138;2023-04-25T00:30:13;100024.78;;;11.58;55.25
41218;BME280;26950;50.960;7.138;2023-04-25T00:32:39;100029.09;;;11.53;55.42
41218;BME280;26950;50.960;7.138;2023-04-25T00:35:06;100026.53;;;11.59;55.42
41218;BME280;26950;50.960;7.138;2023-04-25T00:37:33;100029.09;;;11.53;55.48
41218;BME280;26950;50.960;7.138;2023-04-25T00:40:00;100029.88;;;11.47;56.01
41218;BME280;26950;50.960;7.138;2023-04-25T00:42:29;100032.47;;;11.44;55.79
41218;BME280;26950;50.960;7.138;2023-04-25T00:44:58;100035.81;;;11.35;56.42
41218;BME280;26950;50.960;7.138;2023-04-25T00:47:25;100038.41;;;11.32;56.54
41218;BME280;26950;50.960;7.138;2023-04-25T00:49:51;100030.38;;;11.22;56.48
41218;BME280;26950;50.960;7.138;2023-04-25T00:52:18;100029.41;;;11.17;56.40
41218;BME280;26950;50.960;7.138;2023-04-25T00:54:45;100027.63;;;11.16;56.45
41218;BME280;26950;50.960;7.138;2023-04-25T00:57:12;100022.47;;;11.20;56.87
41218;BME280;26950;50.960;7.138;2023-04-25T00:59:44;100032.91;;;11.16;57.17
41218;BME280;26950;50.960;7.138;2023-04-25T01:02:11;100030.25;;;11.16;57.15
41218;BME280;26950;50.960;7.138;2023-04-25T01:04:38;100027.53;;;11.08;56.98
41218;BME280;26950;50.960;7.138;2023-04-25T01:07:05;100023.88;;;11.00;57.17
41218;BME280;26950;50.960;7.138;2023-04-25T01:09:32;100032.28;;;10.80;57.53
41218;BME280;26950;50.960;7.138;2023-04-25T01:11:58;100033.88;;;10.71;57.53
41218;BME280;26950;50.960;7.138;2023-04-25T01:14:25;100033.78;;;10.65;58.02
41218;BME280;26950;50.960;7.138;2023-04-25T01:16:53;100040.56;;;10.55;58.45
41218;BME280;26950;50.960;7.138;2023-04-25T01:19:20;100037.13;;;10.56;58.50
41218;BME280;26950;50.960;7.138;2023-04-25T01:21:48;100040.66;;;10.60;58.27
41218;BME280;26950;50.960;7.138;2023-04-25T01:24:14;100044.03;;;10.51;58.51
41218;BME280;26950;50.960;7.138;2023-04-25T01:26:42;100039.69;;;10.54;58.59
41218;BME280;26950;50.960;7.138;2023-04-25T01:29:14;100035.41;;;10.58;58.75
41218;BME280;26950;50.960;7.138;2023-04-25T01:31:41;100032.81;;;10.60;58.83
41218;BME280;26950;50.960;7.138;2023-04-25T01:34:08;100034.69;;;10.67;59.17
41218;BME280;26950;50.960;7.138;2023-04-25T01:36:35;100033.91;;;10.74;59.02
41218;BME280;26950;50.960;7.138;2023-04-25T01:39:03;100033.97;;;10.75;58.79
41218;BME280;26950;50.960;7.138;2023-04-25T01:41:30;100035.63;;;10.70;58.72
41218;BME280;26950;50.960;7.138;2023-04-25T01:43:57;100040.03;;;10.73;58.69
41218;BME280;26950;50.960;7.138;2023-04-25T01:46:23;100039.25;;;10.78;58.96
41218;BME280;26950;50.960;7.138;2023-04-25T01:48:50;100044.59;;;10.82;58.94
41218;BME280;26950;50.960;7.138;2023-04-25T01:51:16;100048.16;;;10.87;58.58
41218;BME280;26950;50.960;7.138;2023-04-25T01:53:43;100043.72;;;10.83;58.32
41218;BME280;26950;50.960;7.138;2023-04-25T01:56:11;100044.50;;;10.78;58.40
41218;BME280;26950;50.960;7.138;2023-04-25T01:58:37;100056.72;;;10.76;58.63
41218;BME280;26950;50.960;7.138;2023-04-25T02:01:04;100055.09;;;10.82;58.32
41218;BME280;26950;50.960;7.138;2023-04-25T02:03:31;100045.47;;;10.82;58.08
41218;BME280;26950;50.960;7.138;2023-04-25T02:05:58;100058.81;;;10.94;57.69
41218;BME280;26950;50.960;7.138;2023-04-25T02:08:25;100057.84;;;10.89;57.79
41218;BME280;26950;50.960;7.138;2023-04-25T02:10:51;100059.63;;;10.93;58.06
41218;BME280;26950;50.960;7.138;2023-04-25T02:13:19;100057.19;;;11.02;57.75
41218;BME280;26950;50.960;7.138;2023-04-25T02:15:46;100053.72;;;11.05;57.55
41218;BME280;26950;50.960;7.138;2023-04-25T02:18:12;100052.78;;;11.01;57.74
41218;BME280;26950;50.960;7.138;2023-04-25T02:20:41;100056.28;;;11.00;57.52
41218;BME280;26950;50.960;7.138;2023-04-25T02:23:07;100055.34;;;10.98;57.63
41218;BME280;26950;50.960;7.138;2023-04-25T02:25:34;100058.84;;;10.97;57.65
41218;BME280;26950;50.960;7.138;2023-04-25T02:28:00;100058.81;;;10.96;57.62
41218;BME280;26950;50.960;7.138;2023-04-25T02:30:29;100050.97;;;10.97;57.57
41218;BME280;26950;50.960;7.138;2023-04-25T02:32:55;100055.28;;;10.94;57.39
41218;BME280;26950;50.960;7.138;2023-04-25T02:35:22;100053.47;;;10.90;57.50
41218;BME280;26950;50.960;7.138;2023-04-25T02:37:48;100054.25;;;10.86;57.93
41218;BME280;26950;50.960;7.138;2023-04-25T02:40:15;100056.94;;;10.89;57.78
41218;BME280;26950;50.960;7.138;2023-04-25T02:42:41;100052.56;;;10.88;57.79
41218;BME280;26950;50.960;7.138;2023-04-25T02:45:08;100054.31;;;10.89;57.92
41218;BME280;26950;50.960;7.138;2023-04-25T02:47:36;100058.81;;;10.96;57.68
41218;BME280;26950;50.960;7.138;2023-04-25T02:50:04;100057.84;;;10.89;58.06
41218;BME280;26950;50.960;7.138;2023-04-25T02:52:31;100052.56;;;10.88;58.27
41218;BME280;26950;50.960;7.138;2023-04-25T02:54:57;100050.63;;;10.77;58.63
41218;BME280;26950;50.960;7.138;2023-04-25T02:57:23;100059.25;;;10.72;58.86
41218;BME280;26950;50.960;7.138;2023-04-25T02:59:50;100056.53;;;10.67;59.09
41218;BME280;26950;50.960;7.138;2023-04-25T03:02:16;100059.91;;;10.60;59.18
41218;BME280;26950;50.960;7.138;2023-04-25T03:04:44;100064.19;;;10.55;59.40
41218;BME280;26950;50.960;7.138;2023-04-25T03:07:11;100059.75;;;10.51;59.71
41218;BME280;26950;50.960;7.138;2023-04-25T03:09:37;100065.94;;;10.54;59.68
41218;BME280;26950;50.960;7.138;2023-04-25T03:12:04;100061.53;;;10.52;59.30
41218;BME280;26950;50.960;7.138;2023-04-25T03:14:31;100057.09;;;10.49;59.50
41218;BME280;26950;50.960;7.138;2023-04-25T03:16:57;100053.56;;;10.49;59.35
41218;BME280;26950;50.960;7.138;2023-04-25T03:19:23;100053.69;;;10.55;59.71
41218;BME280;26950;50.960;7.138;2023-04-25T03:21:51;100066.06;;;10.62;59.52
41218;BME280;26950;50.960;7.138;2023-04-25T03:24:18;100051.28;;;10.66;59.41
41218;BME280;26950;50.960;7.138;2023-04-25T03:26:45;100061.88;;;10.70;59.58
41218;BME280;26950;50.960;7.138;2023-04-25T03:29:12;100055.88;;;10.79;59.11
41218;BME280;26950;50.960;7.138;2023-04-25T03:31:38;100067.34;;;10.83;58.71
41218;BME280;26950;50.960;7.138;2023-04-25T03:34:05;100058.66;;;10.87;58.83
41218;BME280;26950;50.960;7.138;2023-04-25T03:36:31;100063.06;;;10.88;58.58
41218;BME280;26950;50.960;7.138;2023-04-25T03:38:59;100063.97;;;10.90;58.16
41218;BME280;26950;50.960;7.138;2023-04-25T03:41:25;100055.19;;;10.88;58.32
41218;BME280;26950;50.960;7.138;2023-04-25T03:43:52;100061.25;;;10.85;58.31
41218;BME280;26950;50.960;7.138;2023-04-25T03:46:20;100065.75;;;10.92;58.04
41218;BME280;26950;50.960;7.138;2023-04-25T03:48:46;100050.97;;;10.97;57.84
41218;BME280;26950;50.960;7.138;2023-04-25T03:51:13;100058.72;;;10.90;58.25
41218;BME280;26950;50.960;7.138;2023-04-25T03:53:39;100057.84;;;10.91;58.56
41218;BME280;26950;50.960;7.138;2023-04-25T03:56:07;100055.22;;;10.91;58.63
41218;BME280;26950;50.960;7.138;2023-04-25T03:58:34;100059.69;;;10.95;58.39
41218;BME280;26950;50.960;7.138;2023-04-25T04:01:01;100067.50;;;10.92;58.94
41218;BME280;26950;50.960;7.138;2023-04-25T04:03:32;100061.44;;;10.94;58.50
41218;BME280;26950;50.960;7.138;2023-04-25T04:05:58;100067.50;;;10.93;58.53
41218;BME280;26950;50.960;7.138;2023-04-25T04:08:25;100058.81;;;10.96;58.48
41218;BME280;26950;50.960;7.138;2023-04-25T04:10:51;100070.13;;;10.92;59.02
41218;BME280;26950;50.960;7.138;2023-04-25T04:13:19;100070.09;;;10.90;59.08
41218;BME280;26950;50.960;7.138;2023-04-25T04:15:46;100075.44;;;10.95;59.21
41218;BME280;26950;50.960;7.138;2023-04-25T04:18:12;100075.44;;;10.96;58.99
41218;BME280;26950;50.960;7.138;2023-04-25T04:20:38;100079.81;;;10.96;58.50
41218;BME280;26950;50.960;7.138;2023-04-25T04:23:05;100084.97;;;10.90;58.30
41218;BME280;26950;50.960;7.138;2023-04-25T04:25:31;100075.31;;;10.89;58.46
41218;BME280;26950;50.960;7.138;2023-04-25T04:27:58;100086.72;;;10.91;58.43
41218;BME280;26950;50.960;7.138;2023-04-25T04:30:27;100090.00;;;10.77;58.82
41218;BME280;26950;50.960;7.138;2023-04-25T04:32:54;100098.91;;;10.87;58.45
41218;BME280;26950;50.960;7.138;2023-04-25T04:35:21;100095.47;;;10.90;58.24
41218;BME280;26950;50.960;7.138;2023-04-25T04:37:48;100091.13;;;10.93;58.06
41218;BME280;26950;50.960;7.138;2023-04-25T04:40:15;100092.94;;;10.96;58.47
41218;BME280;26950;50.960;7.138;2023-04-25T04:42:42;100106.84;;;10.90;58.64
41218;BME280;26950;50.960;7.138;2023-04-25T04:45:10;100109.69;;;11.02;58.39
41218;BME280;26950;50.960;7.138;2023-04-25T04:47:38;100108.84;;;11.05;58.50
41218;BME280;26950;50.960;7.138;2023-04-25T04:50:06;100111.53;;;11.08;58.19
41218;BME280;26950;50.960;7.138;2023-04-25T04:52:33;100113.41;;;11.15;58.10
41218;BME280;26950;50.960;7.138;2023-04-25T04:55:00;100110.00;;;11.19;58.09
41218;BME280;26950;50.960;7.138;2023-04-25T04:57:27;100104.78;;;11.22;58.15
41218;BME280;26950;50.960;7.138;2023-04-25T04:59:53;100116.16;;;11.21;58.07
41218;BME280;26950;50.960;7.138;2023-04-25T05:02:20;100110.03;;;11.22;58.19
41218;BME280;26950;50.960;7.138;2023-04-25T05:04:48;100122.41;;;11.29;57.95
41218;BME280;26950;50.960;7.138;2023-04-25T05:07:15;100127.66;;;11.29;58.04
41218;BME280;26950;50.960;7.138;2023-04-25T05:09:42;100130.97;;;11.18;58.44
41218;BME280;26950;50.960;7.138;2023-04-25T05:12:08;100126.69;;;11.23;58.39
41218;BME280;26950;50.960;7.138;2023-04-25T05:14:35;100133.69;;;11.24;58.55
41218;BME280;26950;50.960;7.138;2023-04-25T05:17:01;100139.94;;;11.30;58.74
41218;BME280;26950;50.960;7.138;2023-04-25T05:19:29;100138.22;;;11.32;58.45
41218;BME280;26950;50.960;7.138;2023-04-25T05:21:57;100146.97;;;11.31;58.65
41218;BME280;26950;50.960;7.138;2023-04-25T05:24:24;100132.03;;;11.29;58.75
41218;BME280;26950;50.960;7.138;2023-04-25T05:26:50;100142.59;;;11.32;58.81
41218;BME280;26950;50.960;7.138;2023-04-25T05:29:17;100143.44;;;11.31;58.61
41218;BME280;26950;50.960;7.138;2023-04-25T05:31:44;100145.03;;;11.21;58.83
41218;BME280;26950;50.960;7.138;2023-04-25T05:34:10;100151.28;;;11.28;58.73
41218;BME280;26950;50.960;7.138;2023-04-25T05:36:37;100152.94;;;11.24;59.00
41218;BME280;26950;50.960;7.138;2023-04-25T05:39:05;100159.16;;;11.26;58.72
41218;BME280;26950;50.960;7.138;2023-04-25T05:41:31;100166.03;;;11.20;59.00
41218;BME280;26950;50.960;7.138;2023-04-25T05:43:58;100164.31;;;11.23;58.97
41218;BME280;26950;50.960;7.138;2023-04-25T05:46:24;100163.56;;;11.30;58.74
41218;BME280;26950;50.960;7.138;2023-04-25T05:48:51;100180.47;;;11.45;58.60
41218;BME280;26950;50.960;7.138;2023-04-25T05:51:17;100170.69;;;11.36;58.79
41218;BME280;26950;50.960;7.138;2023-04-25T05:53:44;100174.16;;;11.33;59.19
41218;BME280;26950;50.960;7.138;2023-04-25T05:56:11;100174.25;;;11.40;59.00
41218;BME280;26950;50.960;7.138;2023-04-25T05:58:38;100175.25;;;11.48;58.69
41218;BME280;26950;50.960;7.138;2023-04-25T06:01:05;100171.97;;;11.61;58.20
41218;BME280;26950;50.960;7.138;2023-04-25T06:03:31;100185.19;;;11.66;57.94
41218;BME280;26950;50.960;7.138;2023-04-25T06:05:58;100175.38;;;11.54;58.34
41218;BME280;26950;50.960;7.138;2023-04-25T06:08:24;100181.31;;;11.44;58.29
41218;BME280;26950;50.960;7.138;2023-04-25T06:10:51;100182.28;;;11.49;58.57
41218;BME280;26950;50.960;7.138;2023-04-25T06:13:19;100193.66;;;11.48;57.71
41218;BME280;26950;50.960;7.138;2023-04-25T06:15:45;100197.28;;;11.56;57.51
41218;BME280;26950;50.960;7.138;2023-04-25T06:18:12;100204.16;;;11.46;57.84
41218;BME280;26950;50.960;7.138;2023-04-25T06:20:38;100201.63;;;11.52;57.29
41218;BME280;26950;50.960;7.138;2023-04-25T06:23:05;100211.06;;;11.41;57.53
41218;BME280;26950;50.960;7.138;2023-04-25T06:25:31;100202.63;;;11.60;57.27
41218;BME280;26950;50.960;7.138;2023-04-25T06:27:57;100210.22;;;11.44;57.51
41218;BME280;26950;50.960;7.138;2023-04-25T06:30:26;100203.81;;;11.78;57.01
41218;BME280;26950;50.960;7.138;2023-04-25T06:32:53;100202.19;;;11.84;57.03
41218;BME280;26950;50.960;7.138;2023-04-25T06:35:19;100189.25;;;12.00;56.25
41218;BME280;26950;50.960;7.138;2023-04-25T06:37:46;100193.19;;;12.28;55.63
41218;BME280;26950;50.960;7.138;2023-04-25T06:40:12;100187.09;;;12.30;54.70
41218;BME280;26950;50.960;7.138;2023-04-25T06:42:40;100193.38;;;12.40;54.55
41218;BME280;26950;50.960;7.138;2023-04-25T06:45:07;100194.19;;;12.36;53.92
41218;BME280;26950;50.960;7.138;2023-04-25T06:47:35;100195.72;;;12.20;52.81
41218;BME280;26950;50.960;7.138;2023-04-25T06:50:02;100196.81;;;12.36;52.61
41218;BME280;26950;50.960;7.138;2023-04-25T06:52:28;100190.81;;;12.45;51.93
41218;BME280;26950;50.960;7.138;2023-04-25T06:54:55;100204.22;;;12.64;52.17
41218;BME280;26950;50.960;7.138;2023-04-25T06:57:21;100201.78;;;12.80;51.16
41218;BME280;26950;50.960;7.138;2023-04-25T06:59:48;100195.56;;;12.73;51.07
41218;BME280;26950;50.960;7.138;2023-04-25T07:02:15;100197.38;;;12.77;50.93
41218;BME280;26950;50.960;7.138;2023-04-25T07:04:42;100196.63;;;12.89;50.97
41218;BME280;26950;50.960;7.138;2023-04-25T07:07:10;100200.31;;;13.06;50.84
41218;BME280;26950;50.960;7.138;2023-04-25T07:09:36;100205.56;;;13.02;50.50
41218;BME280;26950;50.960;7.138;2023-04-25T07:12:03;100201.97;;;12.95;50.24
41218;BME280;26950;50.960;7.138;2023-04-25T07:14:30;100211.78;;;13.10;49.88
41218;BME280;26950;50.960;7.138;2023-04-25T07:16:56;100208.28;;;13.11;49.97
41218;BME280;26950;50.960;7.138;2023-04-25T07:19:23;100204.53;;;12.89;49.33
41218;BME280;26950;50.960;7.138;2023-04-25T07:21:53;100215.16;;;12.96;49.38
41218;BME280;26950;50.960;7.138;2023-04-25T07:24:19;100217.72;;;12.92;48.72
41218;BME280;26950;50.960;7.138;2023-04-25T07:26:46;100222.25;;;13.05;48.48
41218;BME280;26950;50.960;7.138;2023-04-25T07:29:12;100231.84;;;12.99;48.69
41218;BME280;26950;50.960;7.138;2023-04-25T07:31:39;100222.78;;;12.75;48.88
41218;BME280;26950;50.960;7.138;2023-04-25T07:34:05;100219.31;;;12.76;49.19
41218;BME280;26950;50.960;7.138;2023-04-25T07:36:32;100230.03;;;12.94;49.11
41218;BME280;26950;50.960;7.138;2023-04-25T07:39:00;100224.88;;;13.04;48.61
41218;BME280;26950;50.960;7.138;2023-04-25T07:41:26;100224.06;;;13.09;48.48
41218;BME280;26950;50.960;7.138;2023-04-25T07:43:52;100238.22;;;13.17;48.67
41218;BME280;26950;50.960;7.138;2023-04-25T07:46:19;100239.03;;;13.12;47.61
41218;BME280;26950;50.960;7.138;2023-04-25T07:48:45;100244.50;;;13.27;47.28
41218;BME280;26950;50.960;7.138;2023-04-25T07:51:12;100240.06;;;13.23;46.58
41218;BME280;26950;50.960;7.138;2023-04-25T07:53:38;100251.38;;;13.16;46.69
41218;BME280;26950;50.960;7.138;2023-04-25T07:56:07;100247.91;;;13.20;46.65
41218;BME280;26950;50.960;7.138;2023-04-25T07:58:34;100248.66;;;13.10;46.83
41218;BME280;26950;50.960;7.138;2023-04-25T08:01:00;100252.44;;;12.62;47.35
41218;BME280;26950;50.960;7.138;2023-04-25T08:03:27;100255.44;;;12.89;47.26
41218;BME280;26950;50.960;7.138;2023-04-25T08:05:53;100254.44;;;12.81;47.25
41218;BME280;26950;50.960;7.138;2023-04-25T08:08:20;100260.44;;;12.69;47.77
41218;BME280;26950;50.960;7.138;2023-04-25T08:10:47;100264.53;;;13.16;47.37
41218;BME280;26950;50.960;7.138;2023-04-25T08:13:15;100262.53;;;13.71;46.13
41218;BME280;26950;50.960;7.138;2023-04-25T08:15:42;100271.56;;;13.99;44.74
41218;BME280;26950;50.960;7.138;2023-04-25T08:18:08;100264.03;;;14.48;43.25
41218;BME280;26950;50.960;7.138;2023-04-25T08:20:35;100269.47;;;14.74;42.54
41218;BME280;26950;50.960;7.138;2023-04-25T08:23:01;100275.72;;;14.94;41.76
41218;BME280;26950;50.960;7.138;2023-04-25T08:25:27;100277.16;;;14.42;41.65
41218;BME280;26950;50.960;7.138;2023-04-25T08:27:54;100282.59;;;14.59;41.50
41218;BME280;26950;50.960;7.138;2023-04-25T08:30:22;100280.81;;;14.57;40.93
41218;BME280;26950;50.960;7.138;2023-04-25T08:32:49;100285.97;;;14.45;41.16
41218;BME280;26950;50.960;7.138;2023-04-25T08:35:15;100299.03;;;14.25;40.99
41218;BME280;26950;50.960;7.138;2023-04-25T08:37:42;100305.03;;;14.08;41.41
41218;BME280;26950;50.960;7.138;2023-04-25T08:40:11;100304.81;;;13.80;41.96
41218;BME280;26950;50.960;7.138;2023-04-25T08:42:41;100296.47;;;13.39;42.21
41218;BME280;26950;50.960;7.138;2023-04-25T08:45:08;100313.84;;;13.23;42.90
41218;BME280;26950;50.960;7.138;2023-04-25T08:47:37;100310.16;;;13.12;42.99
41218;BME280;26950;50.960;7.138;2023-04-25T08:50:05;100317.19;;;13.13;43.14
41218;BME280;26950;50.960;7.138;2023-04-25T08:52:36;100325.13;;;13.16;43.55
41218;BME280;26950;50.960;7.138;2023-04-25T08:55:05;100339.91;;;13.02;43.41
41218;BME280;26950;50.960;7.138;2023-04-25T08:57:34;100341.56;;;12.96;43.50
41218;BME280;26950;50.960;7.138;2023-04-25T09:00:01;100356.50;;;12.96;43.88
41218;BME280;26950;50.960;7.138;2023-04-25T09:02:28;100347.53;;;12.85;44.10
41218;BME280;26950;50.960;7.138;2023-04-25T09:04:57;100352.81;;;12.83;44.44
41218;BME280;26950;50.960;7.138;2023-04-25T09:07:23;100353.78;;;12.91;44.75
41218;BME280;26950;50.960;7.138;2023-04-25T09:09:51;100357.22;;;12.87;44.42
41218;BME280;26950;50.960;7.138;2023-04-25T09:12:18;100357.97;;;12.77;43.86
41218;BME280;26950;50.960;7.138;2023-04-25T09:15:01;100375.56;;;12.81;43.78
41218;BME280;26950;50.960;7.138;2023-04-25T09:17:28;100370.13;;;12.69;44.05
41218;BME280;26950;50.960;7.138;2023-04-25T09:19:56;100375.34;;;12.66;44.28
41218;BME280;26950;50.960;7.138;2023-04-25T09:22:31;100377.28;;;12.78;44.55
41218;BME280;26950;50.960;7.138;2023-04-25T09:24:57;100377.09;;;12.65;44.67
41218;BME280;26950;50.960;7.138;2023-04-25T09:27:28;100379.41;;;13.02;44.71
41218;BME280;26950;50.960;7.138;2023-04-25T09:29:56;100379.75;;;13.26;44.48
41218;BME280;26950;50.960;7.138;2023-04-25T09:32:24;100377.63;;;13.66;43.48
41218;BME280;26950;50.960;7.138;2023-04-25T09:34:52;100372.84;;;14.15;42.97
41218;BME280;26950;50.960;7.138;2023-04-25T09:37:21;100382.16;;;14.75;42.40
41218;BME280;26950;50.960;7.138;2023-04-25T09:39:49;100380.72;;;15.23;41.07
41218;BME280;26950;50.960;7.138;2023-04-25T09:42:16;100372.91;;;15.47;39.74
41218;BME280;26950;50.960;7.138;2023-04-25T09:44:44;100386.00;;;15.21;38.16
41218;BME280;26950;50.960;7.138;2023-04-25T09:47:11;100378.06;;;15.24;38.12
41218;BME280;26950;50.960;7.138;2023-04-25T09:49:39;100383.13;;;14.89;37.87
41218;BME280;26950;50.960;7.138;2023-04-25T09:52:07;100382.84;;;14.51;38.77
41218;BME280;26950;50.960;7.138;2023-04-25T09:54:36;100386.13;;;14.25;39.44
41218;BME280;26950;50.960;7.138;2023-04-25T09:57:10;100392.22;;;14.15;40.27
41218;BME280;26950;50.960;7.138;2023-04-25T09:59:39;100397.38;;;14.06;40.44
41218;BME280;26950;50.960;7.138;2023-04-25T10:02:07;100402.75;;;14.15;40.34
41218;BME280;26950;50.960;7.138;2023-04-25T10:04:34;100394.84;;;14.17;40.41
41218;BME280;26950;50.960;7.138;2023-04-25T10:07:03;100394.84;;;14.17;40.09
41218;BME280;26950;50.960;7.138;2023-04-25T10:09:32;100401.97;;;14.25;39.74
41218;BME280;26950;50.960;7.138;2023-04-25T10:12:00;100400.25;;;14.27;39.87
41218;BME280;26950;50.960;7.138;2023-04-25T10:14:29;100399.31;;;14.24;40.11
41218;BME280;26950;50.960;7.138;2023-04-25T10:16:55;100408.09;;;14.23;40.56
41218;BME280;26950;50.960;7.138;2023-04-25T10:19:27;100409.88;;;14.22;40.48
41218;BME280;26950;50.960;7.138;2023-04-25T10:21:58;100418.59;;;14.15;40.18
41218;BME280;26950;50.960;7.138;2023-04-25T10:24:28;100413.13;;;13.95;40.89
41218;BME280;26950;50.960;7.138;2023-04-25T10:26:56;100411.22;;;13.85;39.65
41218;BME280;26950;50.960;7.138;2023-04-25T10:29:24;100408.47;;;13.73;40.12
41218;BME280;26950;50.960;7.138;2023-04-25T10:31:51;100417.25;;;13.75;39.96
41218;BME280;26950;50.960;7.138;2023-04-25T10:34:18;100414.91;;;13.28;40.51
41218;BME280;26950;50.960;7.138;2023-04-25T10:36:50;100412.03;;;13.78;39.97
41218;BME280;26950;50.960;7.138;2023-04-25T10:39:22;100412.72;;;13.62;40.19
41218;BME280;26950;50.960;7.138;2023-04-25T10:41:53;100426.19;;;13.86;38.53
41218;BME280;26950;50.960;7.138;2023-04-25T10:44:20;100425.00;;;14.43;38.73
41218;BME280;26950;50.960;7.138;2023-04-25T10:46:48;100414.97;;;15.03;37.81
41218;BME280;26950;50.960;7.138;2023-04-25T10:49:29;100416.75;;;15.08;36.49
41218;BME280;26950;50.960;7.138;2023-04-25T10:52:14;100412.94;;;14.70;35.80
41218;BME280;26950;50.960;7.138;2023-04-25T10:54:42;100421.78;;;14.76;36.00
41218;BME280;26950;50.960;7.138;2023-04-25T10:57:29;100423.19;;;14.39;36.16
41218;BME280;26950;50.960;7.138;2023-04-25T11:00:01;100427.41;;;14.16;37.15
41218;BME280;26950;50.960;7.138;2023-04-25T11:02:37;100416.66;;;14.00;37.52
41218;BME280;26950;50.960;7.138;2023-04-25T11:05:04;100432.13;;;13.70;38.56
41218;BME280;26950;50.960;7.138;2023-04-25T11:07:43;100438.34;;;13.75;39.25
41218;BME280;26950;50.960;7.138;2023-04-25T11:10:10;100419.94;;;13.78;39.76
41218;BME280;26950;50.960;7.138;2023-04-25T11:12:37;100431.41;;;13.82;39.54
41218;BME280;26950;50.960;7.138;2023-04-25T11:15:05;100435.78;;;13.80;39.48
41218;BME280;26950;50.960;7.138;2023-04-25T11:17:34;100426.09;;;13.79;38.73
41218;BME280;26950;50.960;7.138;2023-04-25T11:20:00;100431.44;;;13.83;38.89
41218;BME280;26950;50.960;7.138;2023-04-25T11:22:29;100428.91;;;13.92;38.90
41218;BME280;26950;50.960;7.138;2023-04-25T11:24:55;100430.78;;;14.06;38.83
41218;BME280;26950;50.960;7.138;2023-04-25T11:27:22;100425.75;;;14.28;38.59
41218;BME280;26950;50.960;7.138;2023-04-25T11:29:50;100425.88;;;14.41;38.64
41218;BME280;26950;50.960;7.138;2023-04-25T11:32:18;100427.53;;;14.32;38.54
41218;BME280;26950;50.960;7.138;2023-04-25T11:34:46;100425.97;;;14.48;37.14
41218;BME280;26950;50.960;7.138;2023-04-25T11:37:13;100426.13;;;14.70;36.95
41218;BME280;26950;50.960;7.138;2023-04-25T11:39:43;100428.97;;;14.94;36.47
41218;BME280;26950;50.960;7.138;2023-04-25T11:42:11;100421.16;;;15.13;36.13
41218;BME280;26950;50.960;7.138;2023-04-25T11:44:38;100422.06;;;15.15;36.27
41218;BME280;26950;50.960;7.138;2023-04-25T11:47:05;100427.38;;;15.18;35.89
41218;BME280;26950;50.960;7.138;2023-04-25T11:49:32;100426.38;;;15.00;34.95
41218;BME280;26950;50.960;7.138;2023-04-25T11:51:59;100423.59;;;14.80;35.40
41218;BME280;26950;50.960;7.138;2023-04-25T11:54:26;100432.53;;;14.96;35.71
41218;BME280;26950;50.960;7.138;2023-04-25T11:56:52;100430.72;;;14.92;35.69
41218;BME280;26950;50.960;7.138;2023-04-25T11:59:23;100433.50;;;15.09;35.30
41218;BME280;26950;50.960;7.138;2023-04-25T12:01:50;100430.81;;;15.03;35.58
41218;BME280;26950;50.960;7.138;2023-04-25T12:04:18;100430.94;;;15.24;34.82
41218;BME280;26950;50.960;7.138;2023-04-25T12:06:46;100424.91;;;15.47;34.36
41218;BME280;26950;50.960;7.138;2023-04-25T12:09:16;100424.81;;;15.33;33.29
41218;BME280;26950;50.960;7.138;2023-04-25T12:11:44;100428.31;;;15.32;33.68
41218;BME280;26950;50.960;7.138;2023-04-25T12:14:12;100430.16;;;15.45;33.18
41218;BME280;26950;50.960;7.138;2023-04-25T12:16:42;100438.78;;;15.14;33.39
41218;BME280;26950;50.960;7.138;2023-04-25T12:19:08;100436.03;;;14.95;33.13
41218;BME280;26950;50.960;7.138;2023-04-25T12:21:35;100427.38;;;15.19;32.86
41218;BME280;26950;50.960;7.138;2023-04-25T12:24:12;100436.31;;;15.43;32.52
41218;BME280;26950;50.960;7.138;2023-04-25T12:26:47;100433.69;;;15.41;32.42
41218;BME280;26950;50.960;7.138;2023-04-25T12:29:18;100430.94;;;15.24;31.39
41218;BME280;26950;50.960;7.138;2023-04-25T12:31:45;100441.53;;;15.30;31.78
41218;BME280;26950;50.960;7.138;2023-04-25T12:34:11;100439.84;;;15.40;32.66
41218;BME280;26950;50.960;7.138;2023-04-25T12:36:38;100439.88;;;15.49;31.52
41218;BME280;26950;50.960;7.138;2023-04-25T12:39:05;100452.66;;;14.82;32.32
41218;BME280;26950;50.960;7.138;2023-04-25T12:41:32;100440.66;;;15.33;32.56
41218;BME280;26950;50.960;7.138;2023-04-25T12:44:00;100432.66;;;15.19;33.64
41218;BME280;26950;50.960;7.138;2023-04-25T12:46:26;100434.50;;;15.29;32.33
41218;BME280;26950;50.960;7.138;2023-04-25T12:48:53;100439.53;;;14.91;31.96
41218;BME280;26950;50.960;7.138;2023-04-25T12:51:20;100437.81;;;14.96;32.11